Time;durP1;ratioP1;P1;durP2;ratioP2;P2;SDS_P1;SDS_P2;PMS_P1;PMS_P2;Temp;Humidity;BMP_temperature;BMP_pressure;BME280_temperature;BME280_humidity;BME280_pressure;Samples;Min_cycle;Max_cycle;Signal;HPM_P1;HPM_P2
2023/12/14 00:02:09;;;;;;;4.28;2.00;;;10.30;99.90;;;;;;10102029;28;20195;-73
2023/12/14 00:07:00;;;;;;;2.88;1.80;;;10.20;99.90;;;;;;10071581;28;20049;-70
2023/12/14 00:11:50;;;;;;;3.22;1.90;;;10.20;99.90;;;;;;10101084;28;20047;-70
2023/12/14 00:16:41;;;;;;;2.80;2.53;;;10.30;99.90;;;;;;10084552;28;20047;-71
2023/12/14 00:21:32;;;;;;;4.03;1.85;;;10.30;99.90;;;;;;10082431;28;20040;-70
2023/12/14 00:26:22;;;;;;;3.08;2.20;;;10.30;99.90;;;;;;10127049;23;20420;-69
2023/12/14 00:31:13;;;;;;;2.42;2.08;;;10.20;99.90;;;;;;10178838;28;20027;-69
2023/12/14 00:36:04;;;;;;;3.33;1.80;;;10.30;99.90;;;;;;10177311;28;20036;-69
2023/12/14 00:40:55;;;;;;;2.42;2.08;;;10.40;99.90;;;;;;10180526;28;20036;-69
2023/12/14 00:45:45;;;;;;;3.97;1.80;;;10.30;99.90;;;;;;10179907;28;20158;-69
2023/12/14 00:50:36;;;;;;;2.50;1.77;;;10.30;99.90;;;;;;10178158;28;20028;-70
2023/12/14 00:55:27;;;;;;;2.90;2.15;;;10.30;99.90;;;;;;10179361;28;20121;-69
2023/12/14 01:00:19;;;;;;;4.57;2.38;;;10.40;99.90;;;;;;10180201;28;20031;-68
2023/12/14 01:05:09;;;;;;;3.50;2.08;;;10.40;99.90;;;;;;10173756;28;20040;-69
2023/12/14 01:10:00;;;;;;;3.55;1.85;;;10.30;99.90;;;;;;10173842;28;20024;-68
2023/12/14 01:14:50;;;;;;;2.63;1.83;;;10.40;99.90;;;;;;10155677;28;20032;-69
2023/12/14 01:19:41;;;;;;;3.60;1.73;;;10.40;99.90;;;;;;10179595;28;20069;-69
2023/12/14 01:24:32;;;;;;;4.65;1.98;;;10.40;99.90;;;;;;10159380;28;20516;-69
2023/12/14 01:29:22;;;;;;;4.40;2.20;;;10.30;99.90;;;;;;10176539;28;20048;-70
2023/12/14 01:34:15;;;;;;;2.03;1.83;;;10.30;99.90;;;;;;10178673;28;20127;-68
2023/12/14 01:39:06;;;;;;;3.53;2.03;;;10.30;99.90;;;;;;10174889;28;20028;-68
2023/12/14 01:43:56;;;;;;;5.38;2.30;;;10.20;99.90;;;;;;10175334;28;20501;-68
2023/12/14 01:48:47;;;;;;;4.13;2.30;;;10.30;99.90;;;;;;10177163;28;20016;-67
2023/12/14 01:53:41;;;;;;;3.22;2.15;;;10.30;99.90;;;;;;10161410;28;20071;-70
2023/12/14 01:58:31;;;;;;;3.50;2.15;;;10.30;99.90;;;;;;10170924;28;20073;-68
2023/12/14 02:03:22;;;;;;;2.78;1.80;;;10.30;99.90;;;;;;10173874;28;20808;-68
2023/12/14 02:08:13;;;;;;;4.57;2.15;;;10.30;99.90;;;;;;10171522;28;20123;-68
2023/12/14 02:13:04;;;;;;;5.45;2.20;;;10.30;99.90;;;;;;10161282;28;20032;-68
2023/12/14 02:17:54;;;;;;;3.85;2.38;;;10.30;99.90;;;;;;10159861;28;20030;-69
2023/12/14 02:22:52;;;;;;;3.30;2.17;;;10.30;99.90;;;;;;10169993;28;20067;-67
2023/12/14 02:27:43;;;;;;;3.00;2.25;;;10.30;99.90;;;;;;10173061;28;20044;-68
2023/12/14 02:32:33;;;;;;;3.53;2.08;;;10.30;99.90;;;;;;10177239;28;20032;-67
2023/12/14 02:37:24;;;;;;;4.35;2.42;;;10.20;99.90;;;;;;10164762;28;20027;-68
2023/12/14 02:42:15;;;;;;;2.75;2.25;;;10.20;99.90;;;;;;10145333;28;20047;-67
2023/12/14 02:47:05;;;;;;;2.22;1.90;;;10.10;99.90;;;;;;10177176;28;20039;-67
2023/12/14 02:51:56;;;;;;;3.97;2.38;;;10.10;99.90;;;;;;10173974;28;20031;-68
2023/12/14 02:56:46;;;;;;;3.75;2.60;;;10.20;99.90;;;;;;10177170;28;20031;-70
2023/12/14 03:01:37;;;;;;;5.32;2.17;;;10.20;99.90;;;;;;10172874;28;20044;-69
2023/12/14 03:06:28;;;;;;;3.72;2.22;;;10.10;99.90;;;;;;10176126;28;20020;-70
2023/12/14 03:11:26;;;;;;;4.30;2.05;;;10.10;99.90;;;;;;10167075;28;20044;-69
2023/12/14 03:16:16;;;;;;;2.42;2.00;;;10.20;99.90;;;;;;10170777;28;20043;-69
2023/12/14 03:21:07;;;;;;;3.58;2.47;;;10.20;99.90;;;;;;10165140;28;20546;-68
2023/12/14 03:25:58;;;;;;;3.53;2.15;;;10.10;99.90;;;;;;10172816;28;20060;-68
2023/12/14 03:30:48;;;;;;;2.75;2.20;;;10.10;99.90;;;;;;10172884;28;20501;-68
2023/12/14 03:35:41;;;;;;;3.35;2.30;;;10.10;99.90;;;;;;10176161;28;20119;-68
2023/12/14 03:40:32;;;;;;;3.00;2.30;;;10.10;99.90;;;;;;10141857;28;20032;-68
2023/12/14 03:45:23;;;;;;;4.72;2.65;;;10.10;99.90;;;;;;10148346;28;20028;-68
2023/12/14 03:50:13;;;;;;;3.60;2.45;;;10.20;99.90;;;;;;10167054;28;20024;-68
2023/12/14 03:55:04;;;;;;;3.47;2.28;;;10.20;99.90;;;;;;10168158;28;20043;-68
2023/12/14 03:59:55;;;;;;;4.32;2.53;;;10.10;99.90;;;;;;10174579;28;20047;-68
2023/12/14 04:04:47;;;;;;;3.67;2.65;;;10.20;99.90;;;;;;10173416;28;20391;-67
2023/12/14 04:09:37;;;;;;;4.97;2.60;;;10.10;99.90;;;;;;10167475;28;20028;-69
2023/12/14 04:14:28;;;;;;;3.97;2.17;;;10.10;99.90;;;;;;10160254;28;20031;-70
2023/12/14 04:19:18;;;;;;;5.10;2.17;;;10.10;99.90;;;;;;10146261;28;20119;-70
2023/12/14 04:24:11;;;;;;;3.80;2.33;;;10.10;99.90;;;;;;10171165;28;20072;-70
2023/12/14 04:29:01;;;;;;;4.22;2.42;;;10.10;99.90;;;;;;10161114;28;20113;-70
2023/12/14 04:33:52;;;;;;;5.68;3.15;;;10.10;99.90;;;;;;10168327;28;20638;-69
2023/12/14 04:38:45;;;;;;;7.10;2.85;;;10.20;99.90;;;;;;10167509;28;20517;-69
2023/12/14 04:43:36;;;;;;;4.75;2.42;;;10.20;99.90;;;;;;10166309;28;20137;-69
2023/12/14 04:48:27;;;;;;;3.88;2.42;;;10.10;99.90;;;;;;10160591;28;20537;-70
2023/12/14 04:53:17;;;;;;;5.07;2.25;;;10.10;99.90;;;;;;10175974;28;20035;-68
2023/12/14 04:58:08;;;;;;;3.83;2.35;;;10.10;99.90;;;;;;10177182;28;20036;-68
2023/12/14 05:02:59;;;;;;;3.63;2.22;;;10.10;99.90;;;;;;10183890;28;20036;-68
2023/12/14 05:07:49;;;;;;;3.15;2.10;;;10.10;99.90;;;;;;10157619;28;20083;-67
2023/12/14 05:12:40;;;;;;;4.38;2.38;;;10.10;99.90;;;;;;10178938;28;20059;-69
2023/12/14 05:17:31;;;;;;;4.53;2.75;;;10.10;99.90;;;;;;10170139;28;20432;-69
2023/12/14 05:22:21;;;;;;;2.33;2.05;;;10.10;99.90;;;;;;10157125;28;20039;-69
2023/12/14 05:27:12;;;;;;;7.03;2.42;;;10.10;99.90;;;;;;10176366;28;20357;-69
2023/12/14 05:32:03;;;;;;;3.15;2.22;;;10.20;99.90;;;;;;10165205;28;20028;-68
2023/12/14 05:36:54;;;;;;;3.22;2.10;;;10.20;99.90;;;;;;10168085;28;20077;-69
2023/12/14 05:41:44;;;;;;;3.80;2.28;;;10.10;99.90;;;;;;10163634;28;20375;-69
2023/12/14 05:46:35;;;;;;;2.30;1.67;;;10.20;99.90;;;;;;10179806;28;20032;-68
2023/12/14 05:51:30;;;;;;;2.25;1.60;;;10.00;99.90;;;;;;10177424;28;20036;-68
2023/12/14 05:56:21;;;;;;;4.35;2.38;;;10.10;99.90;;;;;;10179139;28;20036;-68
2023/12/14 06:01:12;;;;;;;5.30;2.20;;;10.20;99.90;;;;;;10170365;28;20394;-68
2023/12/14 06:06:02;;;;;;;3.97;2.05;;;10.20;99.90;;;;;;10179086;28;20035;-68
2023/12/14 06:10:53;;;;;;;2.80;2.00;;;10.20;99.90;;;;;;10141057;28;20056;-69
2023/12/14 06:15:43;;;;;;;4.32;2.40;;;10.00;99.90;;;;;;10157981;28;20074;-69
2023/12/14 06:20:34;;;;;;;5.20;1.98;;;10.00;99.90;;;;;;10172815;28;20081;-67
2023/12/14 06:25:25;;;;;;;5.40;2.25;;;10.10;99.90;;;;;;10176997;28;20031;-66
2023/12/14 06:30:15;;;;;;;4.53;2.45;;;10.00;99.90;;;;;;10174978;28;20070;-67
2023/12/14 06:35:06;;;;;;;3.97;2.08;;;10.00;99.90;;;;;;10176457;28;20623;-68
2023/12/14 06:39:57;;;;;;;3.83;2.47;;;10.10;99.90;;;;;;10175636;28;20119;-67
2023/12/14 06:44:48;;;;;;;3.25;2.20;;;10.00;99.90;;;;;;10159573;28;20024;-67
2023/12/14 06:49:40;;;;;;;4.63;2.45;;;10.00;99.90;;;;;;10167061;28;20043;-67
2023/12/14 06:54:30;;;;;;;3.88;2.00;;;10.00;99.90;;;;;;10176601;28;20050;-67
2023/12/14 06:59:22;;;;;;;4.05;2.28;;;10.00;99.90;;;;;;10173298;28;20027;-66
2023/12/14 07:04:13;;;;;;;2.75;2.35;;;10.10;99.90;;;;;;10150789;28;20034;-67
2023/12/14 07:09:05;;;;;;;4.60;2.10;;;10.00;99.90;;;;;;10162320;28;20043;-67
2023/12/14 07:13:55;;;;;;;5.47;2.53;;;10.00;99.90;;;;;;10173077;28;20595;-68
2023/12/14 07:18:46;;;;;;;7.30;2.00;;;10.00;99.90;;;;;;10171293;28;20050;-68
2023/12/14 07:23:37;;;;;;;4.90;2.20;;;10.00;99.90;;;;;;10171646;28;20130;-68
2023/12/14 07:28:28;;;;;;;2.97;1.80;;;10.00;99.90;;;;;;10170372;28;20135;-69
2023/12/14 07:33:19;;;;;;;2.88;2.05;;;10.00;99.90;;;;;;10174953;28;20036;-67
2023/12/14 07:38:10;;;;;;;2.60;1.48;;;10.00;99.90;;;;;;10162837;28;20032;-67
2023/12/14 07:43:01;;;;;;;5.03;1.77;;;9.90;99.90;;;;;;10157481;28;20024;-69
2023/12/14 07:47:57;;;;;;;4.38;2.72;;;10.00;99.90;;;;;;10150448;28;20028;-68
2023/12/14 07:52:48;;;;;;;3.08;1.63;;;10.00;99.90;;;;;;10133626;28;20046;-68
2023/12/14 07:57:39;;;;;;;6.22;2.08;;;9.90;99.90;;;;;;10166319;28;20044;-67
2023/12/14 08:02:29;;;;;;;2.20;1.50;;;10.00;99.90;;;;;;10170941;28;20036;-66
2023/12/14 08:07:20;;;;;;;4.05;2.42;;;9.90;99.90;;;;;;10174400;28;20028;-67
2023/12/14 08:12:11;;;;;;;3.78;1.92;;;10.00;99.90;;;;;;10144030;28;20402;-67
2023/12/14 08:17:02;;;;;;;3.50;2.10;;;10.00;99.90;;;;;;10173884;28;20040;-68
2023/12/14 08:21:53;;;;;;;4.05;1.88;;;10.00;99.90;;;;;;10177769;28;20118;-68
2023/12/14 08:26:44;;;;;;;4.70;1.85;;;10.00;99.90;;;;;;10174941;28;20474;-68
2023/12/14 08:31:34;;;;;;;2.80;1.85;;;10.00;99.90;;;;;;10171867;28;20035;-68
2023/12/14 08:36:25;;;;;;;4.20;2.17;;;10.00;99.90;;;;;;10181635;28;20081;-69
2023/12/14 08:41:16;;;;;;;3.38;2.05;;;10.10;99.90;;;;;;10160977;28;20126;-67
2023/12/14 08:46:07;;;;;;;2.70;2.13;;;10.10;99.90;;;;;;10166348;28;20112;-68
2023/12/14 08:50:58;;;;;;;5.28;2.63;;;10.10;99.90;;;;;;10176144;28;20025;-69
2023/12/14 08:55:48;;;;;;;5.75;2.10;;;10.10;99.90;;;;;;10167467;28;20032;-69
2023/12/14 09:00:39;;;;;;;3.47;2.20;;;10.20;99.90;;;;;;10177741;28;20102;-69
2023/12/14 09:05:30;;;;;;;2.80;1.98;;;10.10;99.90;;;;;;10178075;28;20032;-67
2023/12/14 09:10:20;;;;;;;3.88;1.88;;;10.10;99.90;;;;;;10178479;28;20085;-69
2023/12/14 09:15:11;;;;;;;5.15;2.80;;;10.20;99.90;;;;;;10169636;28;20028;-69
2023/12/14 09:20:05;;;;;;;3.25;2.40;;;10.30;99.90;;;;;;10176941;28;20539;-68
2023/12/14 09:24:56;;;;;;;3.05;2.10;;;10.40;99.90;;;;;;10152270;28;20048;-68
2023/12/14 09:29:47;;;;;;;3.92;2.55;;;10.40;99.90;;;;;;10170312;28;20047;-69
2023/12/14 09:34:38;;;;;;;5.15;2.70;;;10.40;99.90;;;;;;10159017;28;20032;-69
2023/12/14 09:39:28;;;;;;;5.13;2.72;;;10.40;99.90;;;;;;10164820;28;20158;-69
2023/12/14 09:44:19;;;;;;;4.85;2.60;;;10.40;99.90;;;;;;10173998;28;20473;-68
2023/12/14 09:49:11;;;;;;;3.88;2.60;;;10.30;99.90;;;;;;10176591;28;20524;-69
2023/12/14 09:54:02;;;;;;;5.22;2.90;;;10.30;99.90;;;;;;10174591;28;20034;-68
2023/12/14 09:58:53;;;;;;;6.43;3.10;;;10.30;99.90;;;;;;10160990;28;20056;-68
2023/12/14 10:03:44;;;;;;;5.75;2.75;;;10.40;99.90;;;;;;10158525;28;20055;-69
2023/12/14 10:08:35;;;;;;;6.90;3.30;;;10.40;99.90;;;;;;10165324;28;20459;-69
2023/12/14 10:13:39;;;;;;;5.00;3.72;;;10.50;99.90;;;;;;10153569;28;20126;-67
2023/12/14 10:18:34;;;;;;;4.80;3.53;;;10.60;99.90;;;;;;10168811;28;20028;-69
2023/12/14 10:23:26;;;;;;;6.83;3.23;;;10.60;99.90;;;;;;10156554;28;20048;-67
2023/12/14 10:28:17;;;;;;;4.00;2.90;;;10.50;99.90;;;;;;10176751;28;20278;-68
2023/12/14 10:33:09;;;;;;;9.27;3.40;;;10.50;99.90;;;;;;10165274;28;20028;-70
2023/12/14 10:38:09;;;;;;;6.60;4.07;;;10.60;99.90;;;;;;10162323;28;20086;-67
2023/12/14 10:43:00;;;;;;;7.10;4.38;;;10.60;99.90;;;;;;10153177;28;20051;-69
2023/12/14 10:47:52;;;;;;;7.32;3.80;;;10.60;99.90;;;;;;10148978;28;20083;-69
2023/12/14 10:52:44;;;;;;;6.95;3.60;;;10.70;99.90;;;;;;10147740;28;20036;-68
2023/12/14 10:57:35;;;;;;;7.80;3.75;;;10.70;99.90;;;;;;10169263;28;20505;-67
2023/12/14 11:02:25;;;;;;;8.20;4.63;;;10.80;99.90;;;;;;10169734;28;20039;-68
2023/12/14 11:07:16;;;;;;;10.73;5.10;;;10.70;99.90;;;;;;10172599;28;20020;-69
2023/12/14 11:12:09;;;;;;;8.57;4.43;;;10.60;99.90;;;;;;10167245;28;20043;-69
2023/12/14 11:17:06;;;;;;;9.77;5.38;;;10.70;99.90;;;;;;10171328;28;20127;-68
2023/12/14 11:22:23;;;;;;;9.80;5.18;;;10.80;99.90;;;;;;10145522;28;20437;-68
2023/12/14 11:27:14;;;;;;;9.07;4.20;;;10.90;99.90;;;;;;10161499;28;20414;-70
2023/12/14 11:32:06;;;;;;;8.80;4.07;;;10.90;99.90;;;;;;10173088;28;20025;-69
2023/12/14 11:36:58;;;;;;;9.27;4.80;;;10.80;99.90;;;;;;10175663;28;20438;-68
2023/12/14 11:42:08;;;;;;;9.30;4.68;;;10.80;99.90;;;;;;10156351;28;20051;-70
2023/12/14 11:46:59;;;;;;;8.63;4.53;;;10.80;99.90;;;;;;10166252;28;20064;-69
2023/12/14 11:51:52;;;;;;;8.10;5.13;;;10.70;99.90;;;;;;10172095;28;20822;-68
2023/12/14 11:56:47;;;;;;;8.68;4.93;;;10.70;99.90;;;;;;10177173;28;20032;-70
2023/12/14 12:01:38;;;;;;;8.10;4.40;;;10.70;99.90;;;;;;10151296;28;20036;-70
2023/12/14 12:06:29;;;;;;;8.95;4.85;;;10.70;99.90;;;;;;10178511;28;20019;-71
2023/12/14 12:11:22;;;;;;;7.22;4.35;;;10.70;99.90;;;;;;10175383;28;20454;-70
2023/12/14 12:16:12;;;;;;;8.20;5.13;;;10.70;99.90;;;;;;10180717;28;20016;-71
2023/12/14 12:21:06;;;;;;;7.80;4.78;;;10.60;99.90;;;;;;10174107;28;20458;-70
2023/12/14 12:25:56;;;;;;;8.60;4.00;;;10.60;99.90;;;;;;10161527;28;20127;-70
2023/12/14 12:30:47;;;;;;;7.85;4.85;;;10.50;99.90;;;;;;10178709;28;20122;-70
2023/12/14 12:35:38;;;;;;;7.60;4.40;;;10.60;99.90;;;;;;10178513;28;20184;-70
2023/12/14 12:40:30;;;;;;;6.95;4.68;;;10.70;99.90;;;;;;10174548;28;20028;-70
2023/12/14 12:45:27;;;;;;;9.63;5.78;;;10.70;99.90;;;;;;10177811;28;20036;-70
2023/12/14 12:50:18;;;;;;;9.27;4.28;;;10.70;99.90;;;;;;10174881;28;20058;-70
2023/12/14 12:55:09;;;;;;;10.68;4.22;;;10.70;99.90;;;;;;10168834;28;20056;-69
2023/12/14 12:59:59;;;;;;;11.20;5.07;;;10.70;99.90;;;;;;10174654;28;20024;-70
2023/12/14 13:04:50;;;;;;;9.55;4.53;;;10.70;99.90;;;;;;10171473;28;20460;-70
2023/12/14 13:09:41;;;;;;;8.95;5.43;;;10.70;99.90;;;;;;10146295;28;20032;-70
2023/12/14 13:14:31;;;;;;;9.80;5.03;;;10.70;99.90;;;;;;10170182;28;20024;-70
2023/12/14 13:19:23;;;;;;;7.68;4.90;;;10.70;99.90;;;;;;10179365;28;20539;-71
2023/12/14 13:24:13;;;;;;;9.55;5.57;;;10.60;99.90;;;;;;10175157;28;20176;-70
2023/12/14 13:29:04;;;;;;;7.45;4.70;;;10.60;99.90;;;;;;10179872;28;20050;-70
2023/12/14 13:33:55;;;;;;;8.65;4.50;;;10.70;99.90;;;;;;10166210;28;20097;-69
2023/12/14 13:38:45;;;;;;;7.90;4.55;;;10.80;99.90;;;;;;10173371;28;20032;-70
2023/12/14 13:43:36;;;;;;;9.95;5.05;;;10.80;99.90;;;;;;10156158;28;20044;-69
2023/12/14 13:48:28;;;;;;;8.05;4.47;;;10.80;99.90;;;;;;10157070;28;20028;-69
2023/12/14 13:53:19;;;;;;;8.68;5.40;;;10.90;99.90;;;;;;10158299;28;20028;-69
2023/12/14 13:58:10;;;;;;;7.53;4.55;;;10.90;99.90;;;;;;10169609;28;20027;-70
2023/12/14 14:03:03;;;;;;;8.02;4.07;;;10.90;99.90;;;;;;10175323;28;20139;-69
2023/12/14 14:07:53;;;;;;;5.13;3.72;;;11.00;99.90;;;;;;10163948;28;20520;-69
2023/12/14 14:12:45;;;;;;;6.80;3.75;;;10.90;99.90;;;;;;10165747;28;20028;-70
2023/12/14 14:17:35;;;;;;;6.38;3.67;;;10.90;99.90;;;;;;10160622;28;20570;-69
2023/12/14 14:22:26;;;;;;;5.35;4.13;;;10.80;99.90;;;;;;10178241;28;20104;-69
2023/12/14 14:27:17;;;;;;;7.95;4.13;;;10.80;99.90;;;;;;10177500;28;20040;-70
2023/12/14 14:32:07;;;;;;;7.85;3.95;;;10.70;99.90;;;;;;10172089;28;20031;-69
2023/12/14 14:36:58;;;;;;;6.95;3.78;;;10.80;99.90;;;;;;10178541;28;20028;-69
2023/12/14 14:41:50;;;;;;;5.10;3.08;;;10.80;99.90;;;;;;10148371;28;20568;-69
2023/12/14 14:46:41;;;;;;;8.07;3.80;;;10.80;99.90;;;;;;10177656;28;20111;-69
2023/12/14 14:51:32;;;;;;;4.78;2.75;;;10.80;99.90;;;;;;10152916;28;20535;-69
2023/12/14 14:56:22;;;;;;;6.90;3.85;;;10.80;99.90;;;;;;10176555;28;20013;-69
2023/12/14 15:01:13;;;;;;;3.95;2.67;;;10.80;99.90;;;;;;10151678;28;20509;-69
2023/12/14 15:06:04;;;;;;;4.95;2.83;;;10.70;99.90;;;;;;10170884;28;20027;-69
2023/12/14 15:10:57;;;;;;;6.20;2.67;;;10.80;99.90;;;;;;10175713;28;20024;-69
2023/12/14 15:15:48;;;;;;;6.25;3.10;;;10.80;99.90;;;;;;10158274;28;20028;-69
2023/12/14 15:20:40;;;;;;;6.10;3.20;;;10.70;99.90;;;;;;10165428;28;20088;-71
2023/12/14 15:25:31;;;;;;;8.93;3.55;;;10.80;99.90;;;;;;10171126;28;20485;-69
2023/12/14 15:30:22;;;;;;;4.78;2.55;;;10.80;99.90;;;;;;10171852;28;20040;-69
2023/12/14 15:35:12;;;;;;;5.57;3.40;;;10.80;99.90;;;;;;10151946;28;20028;-69
2023/12/14 15:40:05;;;;;;;6.32;3.55;;;10.70;99.90;;;;;;10165470;28;20107;-69
2023/12/14 15:44:55;;;;;;;6.68;3.72;;;10.70;99.90;;;;;;10165466;28;20040;-68
2023/12/14 15:49:46;;;;;;;6.65;3.33;;;10.80;99.90;;;;;;10170226;28;20085;-69
2023/12/14 15:54:37;;;;;;;8.82;4.05;;;10.80;99.90;;;;;;10151013;28;20562;-70
2023/12/14 15:59:27;;;;;;;6.70;3.40;;;10.70;99.90;;;;;;10166286;28;20028;-68
2023/12/14 16:04:18;;;;;;;7.68;2.95;;;10.70;99.90;;;;;;10151114;28;20517;-70
2023/12/14 16:09:09;;;;;;;4.18;2.70;;;10.70;99.90;;;;;;10153967;28;20024;-69
2023/12/14 16:13:59;;;;;;;4.90;2.47;;;10.70;99.90;;;;;;10144940;28;20350;-69
2023/12/14 16:18:50;;;;;;;3.50;2.58;;;10.70;99.90;;;;;;10157060;28;20032;-70
2023/12/14 16:23:41;;;;;;;5.07;3.08;;;10.70;99.90;;;;;;10145939;28;20040;-70
2023/12/14 16:28:31;;;;;;;4.25;2.58;;;10.60;99.90;;;;;;10162919;28;20039;-70
2023/12/14 16:33:22;;;;;;;4.63;2.40;;;10.60;99.90;;;;;;10152329;28;20043;-72
2023/12/14 16:38:13;;;;;;;6.65;3.08;;;10.40;99.90;;;;;;10146883;28;20653;-69
2023/12/14 16:43:03;;;;;;;6.18;2.83;;;10.40;99.90;;;;;;10172895;28;20036;-69
2023/12/14 16:47:54;;;;;;;3.65;2.40;;;10.40;99.90;;;;;;10161740;28;20098;-66
2023/12/14 16:52:45;;;;;;;5.22;2.47;;;10.40;99.90;;;;;;10151784;28;20035;-68
2023/12/14 16:57:36;;;;;;;7.38;3.03;;;10.30;99.90;;;;;;10158592;28;20040;-69
2023/12/14 17:02:26;;;;;;;5.47;3.00;;;10.30;99.90;;;;;;10155882;28;20495;-69
2023/12/14 17:07:17;;;;;;;4.30;2.88;;;10.30;99.90;;;;;;10158951;28;20126;-69
2023/12/14 17:12:08;;;;;;;4.10;2.00;;;10.20;99.90;;;;;;10162963;28;20027;-68
2023/12/14 17:16:59;;;;;;;4.32;2.38;;;10.10;99.90;;;;;;10160708;28;20032;-69
2023/12/14 17:21:56;;;;;;;5.15;3.85;;;10.00;99.90;;;;;;10151294;28;20123;-68
2023/12/14 17:26:47;;;;;;;5.20;3.67;;;9.90;99.90;;;;;;10158660;28;20047;-68
2023/12/14 17:31:39;;;;;;;4.78;2.35;;;10.00;99.90;;;;;;10177247;28;20036;-69
2023/12/14 17:36:36;;;;;;;6.05;2.65;;;10.00;99.90;;;;;;10162231;28;20039;-70
2023/12/14 17:41:27;;;;;;;6.03;3.15;;;10.10;99.90;;;;;;10174604;28;20474;-69
2023/12/14 17:46:25;;;;;;;4.30;2.95;;;10.10;99.90;;;;;;10173265;28;20032;-70
2023/12/14 17:51:15;;;;;;;4.38;2.55;;;10.10;99.90;;;;;;10176123;28;20509;-68
2023/12/14 17:56:07;;;;;;;4.65;2.72;;;10.00;99.90;;;;;;10175266;28;20040;-69
2023/12/14 18:00:59;;;;;;;4.30;2.63;;;10.00;99.90;;;;;;10174246;28;20024;-69
2023/12/14 18:05:50;;;;;;;6.35;2.70;;;9.90;99.90;;;;;;10160420;28;20036;-69
2023/12/14 18:10:41;;;;;;;5.70;2.33;;;9.80;99.90;;;;;;10176945;28;20062;-69
2023/12/14 18:15:32;;;;;;;3.10;2.13;;;9.90;99.90;;;;;;10171475;28;20024;-68
2023/12/14 18:20:22;;;;;;;5.47;2.63;;;9.80;99.90;;;;;;10177274;28;20107;-68
2023/12/14 18:25:13;;;;;;;5.70;2.80;;;9.80;99.90;;;;;;10176144;28;20037;-70
2023/12/14 18:30:08;;;;;;;5.53;3.22;;;9.80;99.90;;;;;;10176568;28;20048;-67
2023/12/14 18:34:59;;;;;;;7.18;3.53;;;9.70;99.90;;;;;;10153624;28;20505;-67
2023/12/14 18:39:49;;;;;;;5.35;3.00;;;9.80;99.90;;;;;;10160228;28;20048;-67
2023/12/14 18:44:43;;;;;;;5.18;3.10;;;9.70;99.90;;;;;;10169966;28;20060;-68
2023/12/14 18:49:34;;;;;;;5.10;3.08;;;9.60;99.90;;;;;;10164535;28;20046;-67
2023/12/14 18:54:24;;;;;;;6.15;3.72;;;9.50;99.90;;;;;;10161455;28;20414;-67
2023/12/14 18:59:15;;;;;;;5.20;2.65;;;9.50;99.90;;;;;;10162828;28;20020;-69
2023/12/14 19:04:06;;;;;;;8.48;4.32;;;9.40;99.90;;;;;;10165839;28;20400;-68
2023/12/14 19:08:57;;;;;;;6.57;3.85;;;9.40;99.90;;;;;;10165451;28;20466;-68
2023/12/14 19:13:49;;;;;;;7.28;3.97;;;9.40;99.90;;;;;;10161160;28;20016;-67
2023/12/14 19:18:40;;;;;;;6.18;3.25;;;9.40;99.90;;;;;;10167773;28;20065;-67
2023/12/14 19:23:30;;;;;;;4.93;2.95;;;9.50;99.90;;;;;;10169380;28;20778;-67
2023/12/14 19:28:21;;;;;;;9.15;3.47;;;9.40;99.90;;;;;;10163889;28;20044;-67
2023/12/14 19:33:12;;;;;;;4.50;3.08;;;9.50;99.90;;;;;;10166839;28;20400;-67
2023/12/14 19:38:02;;;;;;;4.22;2.90;;;9.40;99.90;;;;;;10164447;28;20030;-68
2023/12/14 19:42:53;;;;;;;4.00;2.47;;;9.30;99.90;;;;;;10168540;28;20043;-68
2023/12/14 19:47:44;;;;;;;4.95;2.72;;;9.30;99.90;;;;;;10163552;28;20076;-66
2023/12/14 19:52:39;;;;;;;6.97;4.03;;;9.30;99.90;;;;;;10163948;28;20115;-66
2023/12/14 19:57:30;;;;;;;6.10;3.47;;;9.40;99.90;;;;;;10163289;28;20020;-67
2023/12/14 20:02:21;;;;;;;6.70;2.95;;;9.50;99.90;;;;;;10163695;28;20637;-68
2023/12/14 20:07:11;;;;;;;4.95;3.40;;;9.40;99.90;;;;;;10166141;28;20032;-69
2023/12/14 20:12:02;;;;;;;4.28;2.55;;;9.40;99.90;;;;;;10167377;28;20084;-69
2023/12/14 20:16:53;;;;;;;4.55;2.38;;;9.50;99.90;;;;;;10168806;28;20055;-67
2023/12/14 20:21:44;;;;;;;4.95;2.95;;;9.40;99.90;;;;;;10167396;28;20524;-69
2023/12/14 20:26:35;;;;;;;5.13;2.72;;;9.40;99.90;;;;;;10173930;28;20135;-69
2023/12/14 20:31:26;;;;;;;4.80;2.83;;;9.40;99.90;;;;;;10168723;28;20601;-69
2023/12/14 20:36:17;;;;;;;4.60;3.22;;;9.40;99.90;;;;;;10170683;28;20124;-68
2023/12/14 20:41:07;;;;;;;5.75;2.95;;;9.30;99.90;;;;;;10169446;28;20138;-69
2023/12/14 20:45:58;;;;;;;6.00;2.40;;;9.40;99.90;;;;;;10166632;28;20583;-69
2023/12/14 20:50:50;;;;;;;6.35;2.85;;;9.30;99.90;;;;;;10148865;28;20112;-70
2023/12/14 20:55:41;;;;;;;5.53;2.97;;;9.30;99.90;;;;;;10171263;28;20032;-67
2023/12/14 21:00:32;;;;;;;5.93;3.20;;;9.20;99.90;;;;;;10161538;28;20029;-68
2023/12/14 21:05:23;;;;;;;5.63;2.70;;;9.20;99.90;;;;;;10171630;28;20021;-70
2023/12/14 21:10:13;;;;;;;5.97;3.15;;;9.20;99.90;;;;;;10172703;28;20421;-69
2023/12/14 21:15:05;;;;;;;4.88;2.53;;;9.20;99.90;;;;;;10167389;28;20027;-68
2023/12/14 21:19:55;;;;;;;6.13;2.63;;;9.20;99.90;;;;;;10169515;28;20028;-69
2023/12/14 21:24:49;;;;;;;5.00;2.70;;;9.10;99.90;;;;;;10166482;28;20053;-69
2023/12/14 21:29:40;;;;;;;6.18;2.85;;;9.20;99.90;;;;;;10163964;28;20048;-67
2023/12/14 21:34:31;;;;;;;5.50;2.78;;;9.00;99.90;;;;;;10158845;28;20100;-68
2023/12/14 21:39:21;;;;;;;4.28;2.08;;;9.00;99.90;;;;;;10152308;28;20077;-70
2023/12/14 21:44:12;;;;;;;4.82;2.10;;;8.90;99.90;;;;;;10174770;28;20036;-66
2023/12/14 21:49:02;;;;;;;3.75;2.38;;;8.90;99.90;;;;;;10174657;28;20024;-67
2023/12/14 21:53:53;;;;;;;5.70;3.22;;;8.90;99.90;;;;;;10176171;28;20032;-68
2023/12/14 21:58:44;;;;;;;3.20;2.10;;;8.80;99.90;;;;;;10176214;28;20047;-69
2023/12/14 22:03:34;;;;;;;5.07;2.78;;;8.80;99.90;;;;;;10164794;28;20545;-69
2023/12/14 22:08:25;;;;;;;7.22;2.53;;;8.80;99.90;;;;;;10176402;28;20028;-68
2023/12/14 22:13:15;;;;;;;6.38;2.85;;;8.80;99.90;;;;;;10143958;28;20089;-69
2023/12/14 22:18:08;;;;;;;4.93;2.45;;;8.90;99.90;;;;;;10174749;28;20024;-68
2023/12/14 22:22:58;;;;;;;4.20;2.75;;;8.90;99.90;;;;;;10175841;28;20424;-70
2023/12/14 22:27:49;;;;;;;5.85;3.00;;;8.80;99.90;;;;;;10171590;28;20142;-69
2023/12/14 22:32:39;;;;;;;6.57;2.83;;;8.80;99.90;;;;;;10175032;28;20040;-70
2023/12/14 22:37:30;;;;;;;7.00;3.70;;;8.90;99.90;;;;;;10166744;28;20797;-67
2023/12/14 22:42:21;;;;;;;7.95;3.50;;;8.90;99.90;;;;;;10174347;28;20039;-69
2023/12/14 22:47:12;;;;;;;5.68;3.00;;;8.90;99.90;;;;;;10175840;28;20016;-69
2023/12/14 22:52:03;;;;;;;6.03;3.15;;;9.00;99.90;;;;;;10176145;28;20028;-68
2023/12/14 22:56:55;;;;;;;5.15;3.60;;;8.90;99.90;;;;;;10177795;28;20433;-69
2023/12/14 23:01:46;;;;;;;5.20;2.55;;;8.90;99.90;;;;;;10170059;28;20040;-69
2023/12/14 23:06:36;;;;;;;6.22;3.55;;;8.90;99.90;;;;;;10173031;28;20052;-69
2023/12/14 23:11:27;;;;;;;4.57;3.50;;;9.00;99.90;;;;;;10175183;28;20054;-69
2023/12/14 23:16:18;;;;;;;4.97;2.67;;;9.00;99.90;;;;;;10172497;28;20026;-68
2023/12/14 23:21:08;;;;;;;6.18;2.95;;;9.00;99.90;;;;;;10170987;28;20040;-67
2023/12/14 23:25:59;;;;;;;5.35;2.95;;;9.00;99.90;;;;;;10172699;28;20508;-69
2023/12/14 23:30:51;;;;;;;6.53;3.53;;;9.10;99.90;;;;;;10174241;28;20024;-67
2023/12/14 23:35:42;;;;;;;4.85;2.67;;;9.10;99.90;;;;;;10152691;28;20100;-66
2023/12/14 23:40:33;;;;;;;5.88;2.92;;;9.00;99.90;;;;;;10175328;28;20012;-67
2023/12/14 23:45:23;;;;;;;7.50;4.22;;;9.00;99.90;;;;;;10175419;28;20036;-69
2023/12/14 23:50:14;;;;;;;6.75;3.33;;;9.10;99.90;;;;;;10174806;28;20031;-69
2023/12/14 23:55:05;;;;;;;5.97;3.58;;;9.10;99.90;;;;;;10183027;28;20036;-69
2023/12/14 23:59:56;;;;;;;5.00;2.78;;;9.10;99.90;;;;;;10181142;28;20351;-69
